Time;durP1;ratioP1;P1;durP2;ratioP2;P2;SDS_P1;SDS_P2;PMS_P1;PMS_P2;Temp;Humidity;BMP_temperature;BMP_pressure;BME280_temperature;BME280_humidity;BME280_pressure;Samples;Min_cycle;Max_cycle;Signal;HPM_P1;HPM_P2
2023/05/29 00:01:21;;;;;;;0.20;0.20;;;10.20;1.00;;;;;;5025055;28;20114;-87
2023/05/29 00:03:47;;;;;;;0.13;0.13;;;10.10;1.00;;;;;;5021177;28;20046;-87
2023/05/29 00:06:13;;;;;;;0.40;0.17;;;10.10;1.00;;;;;;4998407;28;20047;-87
2023/05/29 00:08:39;;;;;;;0.98;0.10;;;10.00;1.00;;;;;;4979092;28;20034;-88
2023/05/29 00:11:05;;;;;;;0.20;0.20;;;10.00;1.00;;;;;;5003183;28;20145;-87
2023/05/29 00:13:30;;;;;;;1.80;0.20;;;9.90;1.00;;;;;;5004100;28;20491;-87
2023/05/29 00:15:58;;;;;;;0.23;0.20;;;9.90;1.00;;;;;;5020634;28;20412;-86
2023/05/29 00:18:25;;;;;;;0.75;0.13;;;9.80;1.00;;;;;;5007529;28;20049;-86
2023/05/29 00:20:54;;;;;;;;;;;9.80;1.00;;;;;;5000840;28;20088;-87
2023/05/29 00:23:21;;;;;;;0.10;0.10;;;9.60;1.00;;;;;;5011073;28;19964;-87
2023/05/29 00:25:47;;;;;;;0.30;0.13;;;9.70;1.00;;;;;;4996090;28;20044;-86
2023/05/29 00:28:13;;;;;;;1.00;0.20;;;9.70;1.00;;;;;;4974834;28;20402;-87
2023/05/29 00:30:39;;;;;;;0.17;0.15;;;9.70;1.00;;;;;;5016748;28;20440;-87
2023/05/29 00:33:05;;;;;;;0.77;0.47;;;9.70;1.00;;;;;;5023478;28;20041;-87
2023/05/29 00:35:31;;;;;;;0.05;0.05;;;9.70;1.00;;;;;;4996278;28;20070;-86
2023/05/29 00:37:58;;;;;;;0.00;0.00;;;9.60;1.00;;;;;;5011508;28;20077;-87
2023/05/29 00:40:24;;;;;;;0.22;0.20;;;9.70;1.00;;;;;;5028788;28;20359;-86
2023/05/29 00:42:50;;;;;;;0.00;0.00;;;9.60;1.00;;;;;;5013365;28;20553;-85
2023/05/29 00:45:18;;;;;;;0.67;0.40;;;9.60;1.00;;;;;;4990874;28;20046;-87
2023/05/29 00:47:45;;;;;;;0.15;0.15;;;9.60;1.00;;;;;;5007017;28;20165;-86
2023/05/29 00:50:13;;;;;;;0.65;0.65;;;8.70;1.00;;;;;;4991074;28;20042;-87
2023/05/29 00:52:41;;;;;;;0.20;0.20;;;9.60;1.00;;;;;;4991874;28;20129;-87
2023/05/29 00:55:08;;;;;;;0.47;0.30;;;9.60;1.00;;;;;;4974754;28;20046;-86
2023/05/29 00:57:36;;;;;;;0.20;0.20;;;9.50;1.00;;;;;;5011413;28;20053;-87
2023/05/29 01:00:13;;;;;;;2.17;0.40;;;9.60;1.00;;;;;;4994717;28;20056;-86
2023/05/29 01:02:44;;;;;;;0.22;0.20;;;9.60;1.00;;;;;;5009831;28;20085;-87
2023/05/29 01:05:11;;;;;;;0.28;0.17;;;9.50;1.00;;;;;;5011069;28;20053;-86
2023/05/29 01:07:38;;;;;;;0.47;0.10;;;9.50;1.00;;;;;;5013315;28;20128;-87
2023/05/29 01:10:05;;;;;;;0.10;0.10;;;9.50;1.00;;;;;;5014562;28;20088;-86
2023/05/29 01:12:54;;;;;;;0.65;0.65;;;9.40;1.00;;;;;;4996814;28;20072;-87
2023/05/29 01:15:33;;;;;;;0.20;0.20;;;9.40;1.00;;;;;;5015752;28;20046;-86
2023/05/29 01:18:23;;;;;;;0.10;0.10;;;9.40;1.00;;;;;;5019715;28;20391;-86
2023/05/29 01:21:08;;;;;;;0.00;0.00;;;9.40;1.00;;;;;;4998118;28;20064;-86
2023/05/29 01:24:21;;;;;;;0.40;0.35;;;9.30;1.00;;;;;;5027286;28;20054;-86
2023/05/29 01:26:58;;;;;;;0.20;0.20;;;9.20;1.00;;;;;;5016376;28;20526;-86
2023/05/29 01:29:29;;;;;;;0.10;0.10;;;9.20;1.00;;;;;;5012251;28;20142;-86
2023/05/29 01:31:56;;;;;;;0.03;0.03;;;9.20;1.00;;;;;;5011924;28;20044;-86
2023/05/29 01:34:22;;;;;;;0.50;0.43;;;9.10;1.00;;;;;;5014397;28;20136;-86
2023/05/29 01:36:48;;;;;;;0.00;0.00;;;9.10;1.00;;;;;;4995325;28;20449;-86
2023/05/29 01:39:14;;;;;;;0.10;0.10;;;9.20;3.60;;;;;;5013924;28;20052;-86
2023/05/29 01:41:41;;;;;;;1.48;0.20;;;9.10;1.00;;;;;;4998163;28;20461;-86
2023/05/29 01:44:08;;;;;;;;;;;9.10;1.00;;;;;;5015538;28;20068;-86
2023/05/29 01:46:38;;;;;;;0.00;0.00;;;9.10;4.60;;;;;;4996289;28;19921;-87
2023/05/29 01:49:05;;;;;;;0.30;0.20;;;9.10;1.00;;;;;;5008237;28;20402;-86
2023/05/29 01:51:35;;;;;;;0.70;0.70;;;9.10;3.50;;;;;;4996304;28;20480;-87
2023/05/29 01:54:03;;;;;;;0.25;0.13;;;9.10;1.00;;;;;;5015161;28;20045;-85
2023/05/29 01:56:30;;;;;;;0.20;0.10;;;9.10;1.00;;;;;;5004697;28;20167;-86
2023/05/29 01:58:58;;;;;;;0.20;0.20;;;9.10;6.80;;;;;;5016375;28;20446;-86
2023/05/29 02:01:24;;;;;;;0.30;0.30;;;9.20;8.90;;;;;;5020245;28;20052;-87
2023/05/29 02:03:53;;;;;;;0.10;0.10;;;9.10;4.20;;;;;;5012623;28;20117;-86
2023/05/29 02:06:20;;;;;;;0.10;0.10;;;9.10;1.40;;;;;;4998945;28;20052;-86
2023/05/29 02:08:46;;;;;;;0.30;0.28;;;9.10;1.00;;;;;;5014491;28;20057;-86
2023/05/29 02:11:12;;;;;;;0.10;0.10;;;9.10;1.00;;;;;;4997159;28;20480;-86
2023/05/29 02:13:38;;;;;;;0.20;0.17;;;9.10;3.20;;;;;;5025214;28;20521;-86
2023/05/29 02:16:04;;;;;;;0.10;0.10;;;9.00;2.60;;;;;;5007983;28;20044;-86
2023/05/29 02:18:31;;;;;;;0.10;0.10;;;9.00;1.00;;;;;;5029900;28;20514;-86
2023/05/29 02:20:56;;;;;;;0.38;0.35;;;9.00;1.00;;;;;;4999734;28;20050;-86
2023/05/29 02:23:22;;;;;;;0.20;0.20;;;8.90;4.80;;;;;;4985455;28;20090;-87
2023/05/29 02:25:48;;;;;;;0.10;0.10;;;8.80;9.20;;;;;;5012383;28;20129;-86
2023/05/29 02:28:14;;;;;;;0.07;0.07;;;8.80;9.80;;;;;;5010396;28;20117;-86
2023/05/29 02:30:40;;;;;;;0.28;0.10;;;8.80;6.80;;;;;;5029790;28;20054;-86
2023/05/29 02:33:08;;;;;;;0.13;0.13;;;8.80;5.30;;;;;;5013652;28;20044;-85
2023/05/29 02:35:34;;;;;;;0.05;0.05;;;8.70;9.20;;;;;;5014799;28;20107;-86
2023/05/29 02:38:00;;;;;;;0.20;0.20;;;8.70;6.00;;;;;;5030073;28;20053;-86
2023/05/29 02:40:26;;;;;;;0.20;0.20;;;8.60;9.40;;;;;;5003517;28;20148;-86
2023/05/29 02:42:52;;;;;;;0.20;0.20;;;8.60;13.60;;;;;;4998529;28;20120;-86
2023/05/29 02:45:18;;;;;;;1.43;0.10;;;8.50;18.10;;;;;;4997148;28;20099;-86
2023/05/29 02:47:43;;;;;;;0.03;0.03;;;8.60;15.80;;;;;;5012702;28;20049;-86
2023/05/29 02:50:10;;;;;;;0.27;0.27;;;8.50;18.80;;;;;;5028701;28;20039;-85
2023/05/29 02:52:41;;;;;;;0.25;0.25;;;8.50;21.60;;;;;;5031494;28;20103;-86
2023/05/29 02:55:10;;;;;;;0.22;0.20;;;8.50;20.40;;;;;;5011066;28;20045;-86
2023/05/29 02:57:35;;;;;;;0.20;0.20;;;8.50;17.70;;;;;;4999978;28;20050;-86
2023/05/29 03:00:05;;;;;;;0.40;0.40;;;8.40;18.90;;;;;;5023178;28;20400;-86
2023/05/29 03:02:31;;;;;;;0.10;0.10;;;8.40;16.70;;;;;;5009964;28;20046;-86
2023/05/29 03:04:57;;;;;;;0.03;0.03;;;8.30;17.40;;;;;;5011167;28;20557;-86
2023/05/29 03:07:23;;;;;;;0.20;0.20;;;7.50;23.40;;;;;;5003257;28;20069;-86
2023/05/29 03:09:48;;;;;;;0.30;0.30;;;8.30;23.00;;;;;;5012519;28;20056;-85
2023/05/29 03:12:14;;;;;;;0.10;0.10;;;8.30;19.40;;;;;;5023323;28;20090;-85
2023/05/29 03:14:40;;;;;;;0.63;0.17;;;8.20;18.70;;;;;;5022690;28;20531;-86
2023/05/29 03:17:09;;;;;;;0.10;0.10;;;8.10;20.70;;;;;;5022967;28;20484;-86
2023/05/29 03:19:35;;;;;;;0.00;0.00;;;8.10;21.90;;;;;;4997769;28;20049;-86
2023/05/29 03:22:00;;;;;;;0.20;0.20;;;8.10;16.70;;;;;;5011911;28;20164;-86
2023/05/29 03:24:27;;;;;;;0.10;0.10;;;8.10;14.00;;;;;;5016901;28;20038;-85
2023/05/29 03:26:53;;;;;;;0.00;0.00;;;8.10;16.60;;;;;;4994998;28;20042;-86
2023/05/29 03:29:19;;;;;;;0.50;0.50;;;8.00;16.70;;;;;;5014005;28;20081;-86
2023/05/29 03:31:47;;;;;;;0.07;0.07;;;8.00;18.90;;;;;;5011609;28;20143;-85
2023/05/29 03:34:13;;;;;;;0.38;0.30;;;8.00;16.70;;;;;;5009418;28;20048;-85
2023/05/29 03:36:39;;;;;;;0.27;0.20;;;8.00;19.30;;;;;;5016460;28;20045;-86
2023/05/29 03:39:05;;;;;;;0.23;0.10;;;8.00;22.80;;;;;;4999496;28;20081;-86
2023/05/29 03:41:30;;;;;;;0.30;0.10;;;7.90;26.90;;;;;;5011875;28;20038;-86
2023/05/29 03:43:56;;;;;;;0.27;0.27;;;8.00;30.40;;;;;;5013590;28;20100;-86
2023/05/29 03:46:22;;;;;;;0.37;0.17;;;7.90;30.70;;;;;;5011769;28;20447;-86
2023/05/29 03:48:48;;;;;;;0.87;0.40;;;8.00;35.80;;;;;;4995784;28;20050;-86
2023/05/29 03:51:13;;;;;;;0.03;0.03;;;8.00;33.30;;;;;;4994139;28;20115;-85
2023/05/29 03:53:39;;;;;;;0.20;0.13;;;8.00;39.20;;;;;;4995444;28;20470;-86
2023/05/29 03:56:05;;;;;;;0.10;0.10;;;8.10;40.00;;;;;;4995925;28;20376;-86
2023/05/29 03:58:31;;;;;;;0.20;0.20;;;8.10;51.50;;;;;;5011096;28;20056;-86
2023/05/29 04:00:57;;;;;;;0.13;0.13;;;8.20;54.60;;;;;;4994771;28;20770;-86
2023/05/29 04:03:23;;;;;;;0.87;0.30;;;8.20;53.50;;;;;;5011295;28;20061;-86
2023/05/29 04:05:48;;;;;;;0.23;0.20;;;8.30;53.40;;;;;;5012360;28;20144;-86
2023/05/29 04:08:14;;;;;;;2.17;0.20;;;8.30;46.30;;;;;;5015124;28;20108;-85
2023/05/29 04:10:40;;;;;;;0.30;0.10;;;8.40;48.70;;;;;;5028385;28;20045;-85
2023/05/29 04:13:06;;;;;;;0.13;0.10;;;8.30;47.60;;;;;;5010722;28;20552;-86
2023/05/29 04:15:33;;;;;;;0.20;0.10;;;8.40;46.00;;;;;;5021720;28;20385;-85
2023/05/29 04:17:59;;;;;;;0.65;0.10;;;8.50;45.50;;;;;;5029645;28;20053;-86
2023/05/29 04:20:25;;;;;;;0.70;0.17;;;8.50;40.40;;;;;;5009374;28;20492;-86
2023/05/29 04:22:51;;;;;;;0.43;0.20;;;8.60;38.30;;;;;;5021895;28;20099;-85
2023/05/29 04:25:17;;;;;;;3.33;0.22;;;8.50;45.70;;;;;;5006190;28;20067;-85
2023/05/29 04:27:48;;;;;;;0.40;0.40;;;8.50;39.60;;;;;;5025384;28;20053;-86
2023/05/29 04:30:15;;;;;;;0.00;0.00;;;9.50;35.00;;;;;;4995244;28;20048;-86
2023/05/29 04:32:42;;;;;;;1.00;0.10;;;8.80;51.20;;;;;;5006287;28;20050;-86
2023/05/29 04:35:09;;;;;;;0.30;0.20;;;8.80;30.50;;;;;;5003590;28;20041;-86
2023/05/29 04:37:38;;;;;;;0.00;0.00;;;8.90;31.90;;;;;;5018980;28;20378;-87
2023/05/29 04:40:09;;;;;;;0.10;0.10;;;8.90;17.40;;;;;;5024224;28;20037;-86
2023/05/29 04:42:40;;;;;;;0.80;0.10;;;9.00;25.40;;;;;;5030267;28;20092;-86
2023/05/29 04:45:06;;;;;;;0.20;0.20;;;8.60;18.10;;;;;;5031110;28;20050;-86
2023/05/29 04:47:32;;;;;;;0.20;0.17;;;9.10;18.70;;;;;;4980607;28;20046;-86
2023/05/29 04:50:01;;;;;;;0.10;0.10;;;9.10;14.10;;;;;;5015285;28;20046;-86
2023/05/29 04:52:28;;;;;;;0.03;0.03;;;9.20;10.80;;;;;;4998101;28;20054;-87
2023/05/29 04:54:57;;;;;;;0.50;0.20;;;9.30;6.60;;;;;;5015839;28;20058;-87
2023/05/29 04:57:23;;;;;;;0.13;0.08;;;9.20;5.10;;;;;;4997441;28;20046;-86
2023/05/29 04:59:49;;;;;;;0.15;0.15;;;9.30;2.70;;;;;;5015503;28;20104;-86
2023/05/29 05:02:15;;;;;;;0.37;0.20;;;9.40;5.70;;;;;;5014645;28;20061;-86
2023/05/29 05:04:42;;;;;;;0.30;0.20;;;9.40;1.00;;;;;;5014796;28;20292;-86
2023/05/29 05:07:09;;;;;;;0.20;0.10;;;9.50;1.00;;;;;;5016250;28;20054;-86
2023/05/29 05:09:34;;;;;;;0.08;0.08;;;9.70;1.00;;;;;;4998283;28;20068;-86
2023/05/29 05:12:01;;;;;;;0.30;0.20;;;9.90;1.00;;;;;;5014811;28;20526;-86
2023/05/29 05:14:27;;;;;;;0.20;0.10;;;10.00;1.00;;;;;;4986762;28;20050;-85
2023/05/29 05:16:53;;;;;;;0.22;0.20;;;9.90;1.00;;;;;;5015204;28;20073;-86
2023/05/29 05:19:19;;;;;;;0.07;0.07;;;9.90;1.00;;;;;;4998285;28;20088;-86
2023/05/29 05:21:47;;;;;;;0.20;0.10;;;10.00;1.00;;;;;;5013529;28;20050;-86
2023/05/29 05:24:13;;;;;;;0.20;0.20;;;10.10;1.00;;;;;;4979137;28;20046;-86
2023/05/29 05:26:39;;;;;;;0.67;0.20;;;10.10;1.00;;;;;;4998670;28;20070;-86
2023/05/29 05:29:05;;;;;;;0.10;0.10;;;10.10;1.00;;;;;;5013265;28;20073;-87
2023/05/29 05:31:31;;;;;;;0.57;0.57;;;10.20;1.00;;;;;;5013750;28;20531;-86
2023/05/29 05:33:57;;;;;;;0.27;0.13;;;10.40;1.00;;;;;;5022765;28;20044;-86
2023/05/29 05:36:23;;;;;;;0.20;0.20;;;10.50;1.00;;;;;;5024213;28;20045;-86
2023/05/29 05:38:49;;;;;;;0.38;0.20;;;10.70;1.00;;;;;;4984767;28;20404;-86
2023/05/29 05:41:14;;;;;;;0.70;0.43;;;11.00;1.00;;;;;;4978940;28;20054;-86
2023/05/29 05:43:40;;;;;;;0.17;0.17;;;11.10;1.00;;;;;;4994903;28;20823;-86
2023/05/29 05:46:06;;;;;;;0.98;0.38;;;11.10;1.00;;;;;;5010536;28;20038;-86
2023/05/29 05:48:32;;;;;;;0.88;0.57;;;11.00;1.00;;;;;;5023338;28;20033;-86
2023/05/29 05:50:58;;;;;;;0.10;0.10;;;10.90;1.00;;;;;;5003246;28;20069;-86
2023/05/29 05:53:24;;;;;;;0.10;0.10;;;10.90;1.00;;;;;;5023871;28;20084;-86
2023/05/29 05:55:49;;;;;;;0.10;0.10;;;10.80;1.00;;;;;;5003655;28;20144;-87
2023/05/29 05:58:15;;;;;;;1.30;0.20;;;10.90;1.00;;;;;;5021613;28;20132;-86
2023/05/29 06:00:42;;;;;;;0.07;0.07;;;11.00;1.00;;;;;;5002675;28;20077;-86
2023/05/29 06:03:08;;;;;;;0.13;0.13;;;11.20;1.00;;;;;;5026175;28;20052;-86
2023/05/29 06:05:36;;;;;;;0.10;0.10;;;11.30;1.00;;;;;;5018628;28;20060;-86
2023/05/29 06:08:02;;;;;;;0.15;0.05;;;11.50;1.00;;;;;;5021744;28;20376;-86
2023/05/29 06:10:27;;;;;;;0.67;0.40;;;11.40;1.00;;;;;;5021878;28;20507;-86
2023/05/29 06:12:53;;;;;;;0.10;0.10;;;11.30;1.00;;;;;;5032786;28;20383;-87
2023/05/29 06:15:19;;;;;;;0.20;0.20;;;11.30;1.00;;;;;;5033059;28;20128;-87
2023/05/29 06:17:45;;;;;;;0.33;0.33;;;11.20;1.00;;;;;;5032044;28;20081;-86
2023/05/29 06:20:11;;;;;;;0.27;0.27;;;11.20;1.00;;;;;;4994135;28;20042;-87
2023/05/29 06:22:37;;;;;;;0.20;0.20;;;11.20;1.00;;;;;;5027084;28;20454;-87
2023/05/29 06:25:06;;;;;;;1.00;0.32;;;11.20;1.00;;;;;;5018131;28;20051;-87
2023/05/29 06:27:32;;;;;;;0.25;0.25;;;11.20;1.00;;;;;;4988317;28;20046;-86
2023/05/29 06:29:57;;;;;;;0.22;0.22;;;11.20;1.00;;;;;;5024992;28;20053;-87
2023/05/29 06:32:28;;;;;;;0.20;0.20;;;11.30;1.00;;;;;;5015778;28;20578;-87
2023/05/29 06:34:53;;;;;;;0.52;0.40;;;11.40;1.00;;;;;;4991814;28;20115;-87
2023/05/29 06:37:19;;;;;;;1.17;0.37;;;11.50;1.00;;;;;;5003783;28;20053;-86
2023/05/29 06:39:46;;;;;;;0.93;0.17;;;11.60;1.00;;;;;;5013608;28;20061;-87
2023/05/29 06:42:11;;;;;;;0.17;0.17;;;12.00;1.00;;;;;;5011426;28;20057;-87
2023/05/29 06:44:37;;;;;;;0.20;0.20;;;12.30;1.00;;;;;;4975317;28;20049;-87
2023/05/29 06:47:03;;;;;;;0.37;0.37;;;12.40;99.90;;;;;;5006810;28;20054;-88
2023/05/29 06:49:29;;;;;;;0.00;0.00;;;11.70;99.90;;;;;;5013429;28;20397;-87
2023/05/29 06:51:55;;;;;;;0.50;0.30;;;12.60;99.90;;;;;;5012620;28;20072;-87
2023/05/29 06:54:21;;;;;;;1.80;0.27;;;12.50;99.90;;;;;;4996637;28;20392;-88
2023/05/29 06:56:51;;;;;;;1.83;0.33;;;12.60;99.90;;;;;;4995539;28;20779;-92
2023/05/29 06:59:20;;;;;;;0.70;0.40;;;12.70;99.90;;;;;;4991949;28;20124;-85
2023/05/29 07:01:46;;;;;;;0.85;0.57;;;12.70;99.90;;;;;;4993054;28;20054;-88
2023/05/29 07:04:14;;;;;;;0.27;0.27;;;12.60;99.90;;;;;;4995002;28;20042;-90
2023/05/29 07:06:40;;;;;;;0.13;0.13;;;12.60;99.90;;;;;;4979843;28;20293;-87
2023/05/29 07:09:07;;;;;;;0.20;0.20;;;12.60;99.90;;;;;;4992434;28;20157;-87
2023/05/29 07:11:35;;;;;;;0.50;0.35;;;12.70;99.90;;;;;;4999884;28;20050;-86
2023/05/29 07:14:01;;;;;;;0.88;0.50;;;12.80;99.90;;;;;;4999186;28;20492;-89
2023/05/29 07:16:27;;;;;;;1.23;0.43;;;13.00;99.90;;;;;;5004893;28;20102;-86
2023/05/29 07:18:52;;;;;;;0.77;0.63;;;13.10;99.90;;;;;;4982297;28;20416;-86
2023/05/29 07:21:20;;;;;;;0.13;0.10;;;13.10;99.90;;;;;;5021585;28;20049;-87
2023/05/29 07:23:45;;;;;;;0.52;0.20;;;13.30;99.90;;;;;;4993156;28;20045;-84
2023/05/29 07:26:11;;;;;;;0.37;0.20;;;12.70;99.90;;;;;;4989755;28;20044;-82
2023/05/29 07:28:37;;;;;;;0.37;0.37;;;13.80;99.90;;;;;;5016774;28;20328;-82
2023/05/29 07:31:03;;;;;;;1.02;0.45;;;13.90;90.00;;;;;;4991627;28;20056;-87
2023/05/29 07:33:29;;;;;;;0.73;0.73;;;13.90;99.90;;;;;;5007797;28;20050;-87
2023/05/29 07:35:55;;;;;;;1.75;0.65;;;13.90;56.90;;;;;;5018255;28;20118;-89
2023/05/29 07:38:21;;;;;;;0.52;0.52;;;13.90;71.60;;;;;;5023407;28;20077;-87
2023/05/29 07:40:46;;;;;;;0.70;0.47;;;13.90;53.50;;;;;;5002179;28;20069;-90
2023/05/29 07:43:12;;;;;;;0.20;0.20;;;13.90;1.00;;;;;;5016951;28;20484;-90
2023/05/29 07:45:38;;;;;;;0.32;0.30;;;13.80;99.90;;;;;;5015906;28;20053;-87
2023/05/29 07:48:04;;;;;;;2.88;1.98;;;13.80;1.00;;;;;;5009825;28;20414;-88
2023/05/29 07:50:37;;;;;;;0.32;0.32;;;13.90;74.80;;;;;;5001525;28;20042;-87
2023/05/29 07:53:03;;;;;;;0.65;0.65;;;13.90;99.90;;;;;;4999390;28;20033;-87
2023/05/29 07:55:29;;;;;;;0.77;0.60;;;13.90;1.00;;;;;;5010352;28;20510;-86
2023/05/29 07:57:57;;;;;;;1.17;0.55;;;13.80;99.90;;;;;;4993678;28;20045;-87
2023/05/29 08:00:24;;;;;;;0.15;0.15;;;14.00;99.90;;;;;;5008399;28;20131;-87
2023/05/29 08:02:49;;;;;;;;;;;14.10;99.90;;;;;;4995932;28;21650;-88
2023/05/29 08:05:15;;;;;;;3.92;0.90;;;13.50;99.90;;;;;;5000016;28;20028;-88
2023/05/29 08:07:43;;;;;;;0.68;0.43;;;14.30;99.90;;;;;;5005029;28;20790;-87
2023/05/29 08:10:09;;;;;;;1.52;0.93;;;14.30;1.00;;;;;;5024404;28;20076;-88
2023/05/29 08:12:35;;;;;;;0.25;0.15;;;14.40;1.00;;;;;;5018508;28;20053;-89
2023/05/29 08:15:05;;;;;;;0.50;0.50;;;14.70;1.00;;;;;;5012895;28;20407;-88
2023/05/29 08:17:31;;;;;;;0.30;0.30;;;14.90;99.90;;;;;;5007359;28;20033;-88
2023/05/29 08:19:57;;;;;;;0.80;0.22;;;15.10;99.90;;;;;;4983750;28;20044;-88
2023/05/29 08:22:28;;;;;;;0.30;0.28;;;15.20;99.90;;;;;;5005909;28;20045;-88
2023/05/29 08:24:54;;;;;;;0.40;0.30;;;15.50;99.90;;;;;;5005538;28;20064;-91
2023/05/29 08:27:20;;;;;;;0.32;0.25;;;15.60;1.00;;;;;;5025349;28;20045;-92
2023/05/29 08:29:46;;;;;;;0.43;0.20;;;15.60;99.90;;;;;;4995298;28;20089;-89
2023/05/29 08:32:14;;;;;;;0.13;0.10;;;15.70;1.00;;;;;;5030137;28;20116;-87
2023/05/29 08:34:41;;;;;;;0.28;0.25;;;15.70;1.00;;;;;;4976936;28;20148;-91
2023/05/29 08:37:07;;;;;;;0.20;0.20;;;15.60;99.90;;;;;;5012012;28;20056;-92
2023/05/29 08:39:33;;;;;;;2.65;0.50;;;15.80;21.10;;;;;;5000567;28;20045;-92
2023/05/29 08:42:07;;;;;;;0.70;0.20;;;15.60;99.90;;;;;;5007023;28;20079;-94
2023/05/29 08:44:33;;;;;;;1.95;0.40;;;15.70;1.00;;;;;;5010479;28;20132;-90
2023/05/29 08:47:05;;;;;;;0.25;0.25;;;15.70;99.90;;;;;;5012485;28;20045;-88
2023/05/29 08:49:47;;;;;;;0.20;0.20;;;15.70;99.90;;;;;;4998109;28;20057;-92
2023/05/29 08:52:16;;;;;;;0.30;0.25;;;15.70;1.00;;;;;;5010985;28;20046;-92
2023/05/29 08:54:46;;;;;;;1.52;0.85;;;15.80;1.00;;;;;;4992590;28;20045;-91
2023/05/29 08:57:12;;;;;;;0.10;0.10;;;15.80;99.90;;;;;;5014863;28;20071;-90
2023/05/29 08:59:40;;;;;;;;;;;15.70;94.50;;;;;;5012756;28;20042;-91
2023/05/29 09:02:08;;;;;;;;;;;15.60;99.90;;;;;;4998269;28;19921;-93
2023/05/29 09:04:36;;;;;;;0.30;0.30;;;15.60;99.90;;;;;;5001117;28;19921;-89
2023/05/29 09:07:02;;;;;;;1.27;0.32;;;15.60;1.00;;;;;;4999998;28;20184;-91
2023/05/29 09:09:31;;;;;;;2.50;0.47;;;15.70;27.10;;;;;;5001162;28;20049;-89
2023/05/29 09:11:58;;;;;;;0.82;0.82;;;15.70;4.20;;;;;;4990574;28;20128;-90
2023/05/29 09:14:39;;;;;;;0.20;0.20;;;15.80;90.70;;;;;;4979284;28;20050;-90
2023/05/29 09:17:06;;;;;;;0.85;0.20;;;15.60;1.00;;;;;;4979144;28;20043;-91
2023/05/29 09:19:35;;;;;;;0.15;0.15;;;15.50;29.10;;;;;;4979397;28;20072;-91
2023/05/29 09:22:05;;;;;;;2.08;0.43;;;15.50;99.90;;;;;;4964754;28;20068;-89
2023/05/29 09:24:32;;;;;;;0.22;0.22;;;15.50;1.00;;;;;;4977934;28;20076;-90
2023/05/29 09:27:00;;;;;;;3.00;0.30;;;15.50;1.00;;;;;;4993933;28;20431;-92
2023/05/29 09:29:30;;;;;;;0.13;0.13;;;15.50;99.90;;;;;;5013616;28;20050;-92
2023/05/29 09:31:56;;;;;;;1.05;0.43;;;15.80;1.00;;;;;;5013365;28;20038;-91
2023/05/29 09:34:24;;;;;;;1.08;0.82;;;15.90;1.00;;;;;;5003728;28;20124;-92
2023/05/29 09:36:53;;;;;;;0.32;0.20;;;15.90;99.90;;;;;;5028546;28;20573;-91
2023/05/29 09:39:19;;;;;;;1.02;0.65;;;15.80;99.90;;;;;;4995650;28;20163;-94
2023/05/29 09:41:54;;;;;;;0.13;0.13;;;15.90;1.00;;;;;;5026822;28;20488;-92
2023/05/29 09:44:26;;;;;;;0.40;0.30;;;15.90;99.90;;;;;;5015578;28;20045;-92
2023/05/29 09:47:00;;;;;;;2.10;0.45;;;15.90;99.90;;;;;;5016316;28;20053;-93
2023/05/29 09:49:31;;;;;;;0.52;0.50;;;15.80;99.90;;;;;;5017122;28;20049;-92
2023/05/29 09:51:59;;;;;;;2.70;0.70;;;15.90;99.90;;;;;;5001374;28;20136;-91
2023/05/29 09:54:40;;;;;;;0.80;0.65;;;15.40;99.90;;;;;;5001291;28;20510;-96
2023/05/29 09:57:56;;;;;;;;;;;;;;;;;;;;;
2023/05/29 10:00:23;;;;;;;0.25;0.25;;;16.00;99.90;;;;;;5022496;28;20523;-91
2023/05/29 10:02:51;;;;;;;0.13;0.13;;;16.10;1.00;;;;;;5000383;28;20045;-88
2023/05/29 10:05:17;;;;;;;2.20;0.50;;;16.30;99.90;;;;;;5016707;28;20046;-90
2023/05/29 10:07:52;;;;;;;0.30;0.30;;;16.40;99.90;;;;;;4986034;28;20085;-90
2023/05/29 10:10:28;;;;;;;;;;;;;;;;;;;;;
2023/05/29 10:13:00;;;;;;;0.17;0.17;;;16.50;99.90;;;;;;5015527;28;20058;-91
2023/05/29 10:15:30;;;;;;;0.43;0.35;;;16.60;99.90;;;;;;4991916;28;20072;-92
2023/05/29 10:18:11;;;;;;;0.40;0.40;;;16.70;99.90;;;;;;5017004;28;20054;-92
2023/05/29 10:20:51;;;;;;;0.63;0.45;;;16.80;78.70;;;;;;5020467;28;20098;-96
2023/05/29 10:23:22;;;;;;;0.30;0.30;;;16.20;99.90;;;;;;5004797;28;20046;-92
2023/05/29 10:26:15;;;;;;;0.80;0.75;;;16.90;99.90;;;;;;5013210;28;20050;-92
2023/05/29 10:28:51;;;;;;;1.25;0.75;;;16.70;99.90;;;;;;4963985;28;20082;-91
2023/05/29 10:31:47;;;;;;;0.40;0.20;;;16.80;92.60;;;;;;4989505;28;20062;-91
2023/05/29 10:34:40;;;;;;;1.67;0.43;;;16.80;99.90;;;;;;4969453;28;20222;-90
2023/05/29 10:37:41;;;;;;;0.45;0.45;;;16.90;19.00;;;;;;4978221;28;20050;-89
2023/05/29 10:40:16;;;;;;;0.17;0.17;;;16.70;1.00;;;;;;4977100;28;20136;-93
2023/05/29 10:42:48;;;;;;;0.20;0.20;;;16.70;67.90;;;;;;5005431;28;20054;-89
2023/05/29 10:45:40;;;;;;;1.08;0.32;;;16.70;1.00;;;;;;5009253;28;20053;-89
2023/05/29 10:48:12;;;;;;;0.70;0.47;;;16.80;99.90;;;;;;4970103;28;20069;-89
2023/05/29 10:50:41;;;;;;;0.32;0.32;;;16.80;99.90;;;;;;5004075;28;20050;-88
2023/05/29 10:53:16;;;;;;;0.73;0.70;;;16.90;99.90;;;;;;5014117;28;20064;-87
2023/05/29 10:55:45;;;;;;;0.52;0.20;;;17.00;99.90;;;;;;5023017;28;20474;-90
2023/05/29 10:58:24;;;;;;;0.47;0.47;;;17.00;1.00;;;;;;5002505;28;20065;-90
2023/05/29 11:00:53;;;;;;;0.20;0.20;;;17.10;99.90;;;;;;5015710;28;20070;-93
2023/05/29 11:03:21;;;;;;;0.28;0.10;;;17.20;1.00;;;;;;5021631;28;20131;-95
2023/05/29 11:06:10;;;;;;;0.50;0.50;;;17.40;1.00;;;;;;5013068;28;20053;-92
2023/05/29 11:09:15;;;;;;;0.20;0.20;;;17.30;99.90;;;;;;5015037;28;20053;-89
2023/05/29 11:12:02;;;;;;;;;;;;;;;;;;;;;
2023/05/29 11:15:05;;;;;;;0.47;0.47;;;17.70;99.90;;;;;;5024393;28;20068;-91
2023/05/29 11:17:42;;;;;;;0.45;0.40;;;17.70;1.00;;;;;;5022821;28;20463;-91
2023/05/29 11:23:50;;;;;;;0.75;0.20;;;17.50;99.90;;;;;;5032012;28;20045;-91
2023/05/29 11:29:33;;;;;;;0.30;0.30;;;17.60;99.90;;;;;;5016885;28;20551;-93
2023/05/29 11:32:09;;;;;;;0.73;0.30;;;18.50;50.30;;;;;;4985561;28;20041;-92
2023/05/29 11:34:44;;;;;;;0.10;0.10;;;17.70;99.90;;;;;;5001940;28;20092;-93
2023/05/29 11:37:33;;;;;;;0.13;0.13;;;17.70;1.00;;;;;;5002198;28;20045;-92
2023/05/29 11:40:40;;;;;;;0.40;0.40;;;17.90;99.90;;;;;;4985938;28;20037;-93
2023/05/29 11:43:31;;;;;;;0.88;0.80;;;17.90;1.00;;;;;;5001979;28;20049;-93
2023/05/29 11:46:05;;;;;;;0.20;0.20;;;18.40;99.90;;;;;;5002196;28;20044;-93
2023/05/29 11:48:44;;;;;;;0.75;0.40;;;17.90;1.00;;;;;;4986857;28;20426;-92
2023/05/29 11:51:24;;;;;;;0.32;0.28;;;17.60;29.90;;;;;;4987037;28;20049;-94
2023/05/29 11:54:01;;;;;;;0.32;0.25;;;17.30;1.00;;;;;;5017686;28;20041;-94
2023/05/29 11:56:40;;;;;;;;;;;;;;;;;;;;;
2023/05/29 12:10:32;;;;;;;0.10;0.10;;;17.50;1.00;;;;;;4882522;29;20047;-94
2023/05/29 12:13:40;;;;;;;0.60;0.30;;;17.70;99.90;;;;;;4919104;29;20070;-92
2023/05/29 12:16:09;;;;;;;0.45;0.30;;;17.70;99.90;;;;;;4938910;29;20043;-93
2023/05/29 12:18:45;;;;;;;0.43;0.30;;;17.70;1.00;;;;;;4937620;29;20047;-93
2023/05/29 12:21:24;;;;;;;0.20;0.20;;;17.70;99.90;;;;;;4921838;29;20047;-94
2023/05/29 12:24:15;;;;;;;1.52;1.20;;;18.20;99.90;;;;;;4908494;29;20071;-94
2023/05/29 12:26:53;;;;;;;0.20;0.20;;;18.10;99.90;;;;;;4937557;29;20051;-93
2023/05/29 12:29:36;;;;;;;0.43;0.28;;;18.00;41.80;;;;;;4957988;28;20080;-93
2023/05/29 12:32:05;;;;;;;0.35;0.20;;;17.90;1.00;;;;;;5017185;28;20084;-93
2023/05/29 12:34:36;;;;;;;0.43;0.43;;;17.90;99.90;;;;;;5015911;28;20037;-93
2023/05/29 12:37:13;;;;;;;2.22;0.57;;;18.10;99.90;;;;;;4985088;28;20042;-95
2023/05/29 12:40:02;;;;;;;0.55;0.20;;;18.20;99.90;;;;;;5000205;28;20049;-94
2023/05/29 12:42:49;;;;;;;0.10;0.10;;;18.20;42.30;;;;;;5001127;28;20128;-93
2023/05/29 12:45:23;;;;;;;0.75;0.75;;;18.20;99.90;;;;;;5000544;28;20045;-92
2023/05/29 12:48:10;;;;;;;0.30;0.20;;;18.20;99.90;;;;;;5000477;28;20050;-93
2023/05/29 12:50:40;;;;;;;1.08;0.30;;;18.10;1.00;;;;;;4999294;28;20506;-93
2023/05/29 12:53:20;;;;;;;0.30;0.22;;;18.30;99.90;;;;;;4999786;28;20049;-90
2023/05/29 12:55:51;;;;;;;0.50;0.30;;;18.50;99.90;;;;;;4999151;28;20091;-92
2023/05/29 12:58:32;;;;;;;0.73;0.47;;;18.50;99.90;;;;;;4998595;28;20044;-90
2023/05/29 13:01:32;;;;;;;0.43;0.30;;;17.90;38.90;;;;;;4984731;28;20079;-91
2023/05/29 13:04:03;;;;;;;0.20;0.20;;;18.70;99.90;;;;;;5017909;28;20467;-90
2023/05/29 13:06:37;;;;;;;0.10;0.10;;;18.70;60.90;;;;;;5003613;28;20537;-91
2023/05/29 13:09:36;;;;;;;0.65;0.65;;;18.80;1.00;;;;;;4989515;28;20049;-90
2023/05/29 13:12:04;;;;;;;0.20;0.20;;;18.90;1.00;;;;;;4991646;28;20075;-92
2023/05/29 13:14:47;;;;;;;0.25;0.25;;;18.70;1.00;;;;;;5005222;28;20092;-91
2023/05/29 13:17:15;;;;;;;0.30;0.30;;;18.70;99.90;;;;;;4989545;28;20053;-91
2023/05/29 13:19:41;;;;;;;0.63;0.25;;;18.80;1.00;;;;;;5019226;28;20372;-92
2023/05/29 13:22:17;;;;;;;;;;;;;;;;;;;;;
2023/05/29 13:24:48;;;;;;;1.60;0.25;;;18.80;1.00;;;;;;5020774;28;20550;-91
2023/05/29 13:27:23;;;;;;;2.63;0.32;;;18.90;1.00;;;;;;5001821;28;20088;-91
2023/05/29 13:29:54;;;;;;;0.30;0.30;;;18.80;99.90;;;;;;5004624;28;20124;-92
2023/05/29 13:32:30;;;;;;;0.55;0.22;;;18.60;99.90;;;;;;5003958;28;20044;-90
2023/05/29 13:34:58;;;;;;;0.50;0.40;;;18.80;1.00;;;;;;5020371;28;20045;-90
2023/05/29 13:37:45;;;;;;;;;;;;;;;;;;;;;